Time;durP1;ratioP1;P1;durP2;ratioP2;P2;SDS_P1;SDS_P2;PMS_P1;PMS_P2;Temp;Humidity;BMP_temperature;BMP_pressure;BME280_temperature;BME280_humidity;BME280_pressure;Samples;Min_cycle;Max_cycle;Signal;HPM_P1;HPM_P2
2022/03/02 00:01:05;;;;;;;13.35;6.20;;;;;;;1.27;100.00;99644.75;5132324;28;20047;-63
2022/03/02 00:03:31;;;;;;;14.95;6.40;;;;;;;1.31;100.00;99620.69;5131929;28;20047;-63
2022/03/02 00:05:57;;;;;;;11.25;5.97;;;;;;;1.32;100.00;99630.38;5132482;28;20533;-63
2022/03/02 00:08:24;;;;;;;15.55;6.57;;;;;;;1.32;100.00;99617.66;5132293;28;20089;-63
2022/03/02 00:10:50;;;;;;;16.90;5.90;;;;;;;1.31;100.00;99613.38;5132303;28;20502;-63
2022/03/02 00:13:16;;;;;;;15.80;6.50;;;;;;;1.34;100.00;99620.88;5132320;28;20069;-63
2022/03/02 00:15:43;;;;;;;18.05;6.57;;;;;;;1.40;100.00;99608.91;5132036;28;20054;-63
2022/03/02 00:18:10;;;;;;;15.98;6.70;;;;;;;1.44;100.00;99619.13;5131950;28;20047;-63
2022/03/02 00:20:36;;;;;;;15.95;6.72;;;;;;;1.38;100.00;99613.81;5132246;28;20130;-63
2022/03/02 00:23:03;;;;;;;13.45;6.50;;;;;;;1.45;100.00;99599.13;5131943;28;20130;-63
2022/03/02 00:25:29;;;;;;;16.48;7.15;;;;;;;1.47;100.00;99589.63;5131828;28;20073;-63
2022/03/02 00:27:56;;;;;;;17.95;7.72;;;;;;;1.53;100.00;99579.53;5131964;28;20053;-63
2022/03/02 00:30:23;;;;;;;16.63;6.97;;;;;;;1.49;100.00;99589.31;5131965;28;20047;-63
2022/03/02 00:32:49;;;;;;;16.45;7.45;;;;;;;1.47;100.00;99595.03;5131912;28;20487;-63
2022/03/02 00:35:15;;;;;;;20.75;7.65;;;;;;;1.46;100.00;99589.91;5132107;28;20051;-63
2022/03/02 00:37:41;;;;;;;15.48;6.45;;;;;;;1.44;100.00;99594.81;5131839;28;20051;-63
2022/03/02 00:40:08;;;;;;;17.52;7.38;;;;;;;1.51;100.00;99604.16;5131607;28;20051;-63
2022/03/02 00:42:35;;;;;;;14.52;6.57;;;;;;;1.56;100.00;99581.66;5131926;28;20472;-63
2022/03/02 00:45:01;;;;;;;17.55;6.93;;;;;;;1.60;100.00;99588.88;5131523;28;20050;-63
2022/03/02 00:47:28;;;;;;;17.15;6.53;;;;;;;1.67;100.00;99587.69;5131557;28;20043;-63
2022/03/02 00:49:55;;;;;;;20.25;7.57;;;;;;;1.62;100.00;99583.16;5131632;28;20057;-63
2022/03/02 00:52:22;;;;;;;15.90;6.90;;;;;;;1.58;100.00;99572.16;5131435;28;20047;-63
2022/03/02 00:54:48;;;;;;;15.00;7.10;;;;;;;1.56;100.00;99568.13;5131458;28;20490;-63
2022/03/02 00:57:15;;;;;;;15.77;6.47;;;;;;;1.43;100.00;99558.88;5130347;27;20108;-63
2022/03/02 00:59:42;;;;;;;19.35;6.82;;;;;;;1.38;100.00;99569.78;5130871;28;20046;-63
2022/03/02 01:02:08;;;;;;;15.77;6.13;;;;;;;1.37;100.00;99570.88;5129136;28;20078;-63
2022/03/02 01:04:34;;;;;;;15.10;6.45;;;;;;;1.41;100.00;99561.88;5131322;28;20058;-63
2022/03/02 01:07:00;;;;;;;14.82;6.38;;;;;;;1.43;100.00;99550.78;5131071;28;20057;-63
2022/03/02 01:09:27;;;;;;;12.48;5.70;;;;;;;1.41;100.00;99542.19;5131135;28;20054;-63
2022/03/02 01:11:54;;;;;;;10.77;5.25;;;;;;;1.47;100.00;99569.94;5131384;28;20058;-63
2022/03/02 01:14:20;;;;;;;16.17;6.53;;;;;;;1.54;100.00;99565.75;5131123;28;20043;-63
2022/03/02 01:16:47;;;;;;;13.80;5.82;;;;;;;1.52;100.00;99532.00;5130996;28;20146;-63
2022/03/02 01:19:13;;;;;;;12.60;5.80;;;;;;;1.49;100.00;99530.69;5131070;28;20054;-63
2022/03/02 01:21:40;;;;;;;16.80;6.32;;;;;;;1.42;100.00;99497.84;5130888;28;20047;-63
2022/03/02 01:24:06;;;;;;;12.23;6.15;;;;;;;1.39;100.00;99479.53;5130993;28;20179;-63
2022/03/02 01:26:32;;;;;;;17.52;5.35;;;;;;;1.32;100.00;99444.78;5130862;28;20054;-63
2022/03/02 01:28:59;;;;;;;14.88;5.70;;;;;;;1.31;100.00;99462.09;5130732;28;20468;-64
2022/03/02 01:31:26;;;;;;;15.35;6.55;;;;;;;1.33;100.00;99470.72;5131135;28;20079;-63
2022/03/02 01:33:54;;;;;;;12.85;5.90;;;;;;;1.39;100.00;99472.22;5130907;28;20058;-63
2022/03/02 01:36:20;;;;;;;13.38;6.47;;;;;;;1.35;100.00;99465.81;5130526;28;20051;-63
2022/03/02 01:38:47;;;;;;;13.60;5.63;;;;;;;1.28;100.00;99453.78;5130817;28;20095;-63
2022/03/02 01:41:15;;;;;;;15.25;5.40;;;;;;;1.32;100.00;99469.09;5130925;28;20099;-63
2022/03/02 01:43:41;;;;;;;12.43;5.47;;;;;;;1.31;100.00;99474.81;5130644;28;20058;-63
2022/03/02 01:46:07;;;;;;;10.15;5.60;;;;;;;1.29;100.00;99461.59;5130871;28;20521;-63
2022/03/02 01:48:34;;;;;;;10.13;5.43;;;;;;;1.25;100.00;99454.38;5130632;28;20050;-63
2022/03/02 01:51:01;;;;;;;11.48;5.50;;;;;;;1.25;100.00;99449.78;5130660;28;20138;-63
2022/03/02 01:53:27;;;;;;;11.25;5.65;;;;;;;1.27;100.00;99449.50;5130503;28;20468;-63
2022/03/02 01:55:56;;;;;;;13.10;5.35;;;;;;;1.18;100.00;99436.66;5130578;28;20093;-63
2022/03/02 01:58:23;;;;;;;11.60;4.82;;;;;;;1.18;100.00;99428.56;5130048;28;20051;-63
2022/03/02 02:00:49;;;;;;;9.77;4.63;;;;;;;1.22;100.00;99430.66;5130562;28;20055;-63
2022/03/02 02:03:15;;;;;;;9.18;4.95;;;;;;;1.20;100.00;99420.16;5130733;28;20057;-63
2022/03/02 02:05:42;;;;;;;11.30;5.28;;;;;;;1.18;100.00;99409.66;5130376;28;20139;-63
2022/03/02 02:08:09;;;;;;;12.07;4.68;;;;;;;1.16;100.00;99414.53;5130254;28;20134;-63
2022/03/02 02:10:35;;;;;;;10.07;5.10;;;;;;;1.14;100.00;99389.75;5133375;27;20104;-63
2022/03/02 02:13:02;;;;;;;12.45;5.70;;;;;;;1.08;100.00;99390.13;5125748;28;20047;-63
2022/03/02 02:15:28;;;;;;;17.98;4.60;;;;;;;1.06;100.00;99386.91;5133903;28;20467;-63
2022/03/02 02:17:55;;;;;;;15.02;5.25;;;;;;;1.08;100.00;99376.63;5133915;28;20074;-63
2022/03/02 02:20:23;;;;;;;14.55;5.95;;;;;;;1.09;100.00;99375.53;5133901;28;20051;-63
2022/03/02 02:22:50;;;;;;;11.63;6.32;;;;;;;1.06;100.00;99381.50;5133820;28;20084;-63
2022/03/02 02:25:17;;;;;;;9.75;5.57;;;;;;;1.02;100.00;99386.69;5133436;28;20188;-63
2022/03/02 02:27:46;;;;;;;9.85;6.00;;;;;;;1.04;100.00;99373.72;5133795;28;20051;-63
2022/03/02 02:30:13;;;;;;;10.85;6.22;;;;;;;1.05;100.00;99363.72;5133608;28;20051;-63
2022/03/02 02:32:41;;;;;;;14.35;6.93;;;;;;;1.10;100.00;99363.63;5133666;28;20047;-63
2022/03/02 02:35:09;;;;;;;15.13;7.13;;;;;;;1.13;100.00;99361.16;5133765;28;20059;-62
2022/03/02 02:37:36;;;;;;;16.85;6.85;;;;;;;1.01;100.00;99363.50;5133454;28;20053;-63
2022/03/02 02:40:07;;;;;;;14.55;6.65;;;;;;;0.99;100.00;99351.41;5133858;28;20055;-63
2022/03/02 02:42:34;;;;;;;14.25;7.13;;;;;;;1.01;100.00;99327.63;5133567;28;20051;-63
2022/03/02 02:45:00;;;;;;;16.35;6.05;;;;;;;1.02;100.00;99319.22;5133560;28;20101;-63
2022/03/02 02:47:27;;;;;;;16.35;6.90;;;;;;;1.11;100.00;99340.94;5133550;28;20047;-62
2022/03/02 02:49:53;;;;;;;10.90;5.88;;;;;;;1.11;100.00;99349.84;5133370;28;20103;-63
2022/03/02 02:52:19;;;;;;;11.77;6.25;;;;;;;1.11;100.00;99340.94;5133090;28;20051;-63
2022/03/02 02:54:47;;;;;;;15.02;6.60;;;;;;;1.12;100.00;99323.63;5133345;28;20082;-63
2022/03/02 02:57:15;;;;;;;13.27;6.57;;;;;;;1.04;100.00;99308.13;5133090;28;20047;-63
2022/03/02 02:59:41;;;;;;;12.27;6.63;;;;;;;1.05;100.00;99294.31;5133119;28;20152;-63
2022/03/02 03:02:08;;;;;;;14.23;6.45;;;;;;;1.03;100.00;99283.00;5133426;28;20043;-63
2022/03/02 03:04:34;;;;;;;14.68;6.95;;;;;;;1.02;100.00;99303.00;5132941;28;20470;-63
2022/03/02 03:07:00;;;;;;;14.18;6.10;;;;;;;1.06;100.00;99308.63;5133066;28;20063;-63
2022/03/02 03:09:26;;;;;;;13.13;6.18;;;;;;;1.05;100.00;99312.41;5132980;28;20047;-63
2022/03/02 03:11:52;;;;;;;12.20;5.93;;;;;;;1.02;100.00;99313.81;5133264;28;20111;-63
2022/03/02 03:14:19;;;;;;;12.05;6.38;;;;;;;0.97;100.00;99330.13;5133052;28;20134;-63
2022/03/02 03:16:46;;;;;;;13.52;5.97;;;;;;;0.97;100.00;99326.59;5132953;28;20429;-63
2022/03/02 03:19:12;;;;;;;11.65;6.35;;;;;;;0.96;100.00;99335.78;5132908;28;20534;-62
2022/03/02 03:21:38;;;;;;;13.65;5.82;;;;;;;1.04;100.00;99337.81;5131802;27;20053;-63
2022/03/02 03:24:05;;;;;;;11.43;5.57;;;;;;;1.08;100.00;99336.13;5133022;28;20051;-63
2022/03/02 03:26:31;;;;;;;14.23;6.45;;;;;;;1.11;100.00;99324.72;5132952;28;20054;-62
2022/03/02 03:28:58;;;;;;;14.13;5.93;;;;;;;1.17;100.00;99318.16;5132908;28;20047;-62
2022/03/02 03:31:24;;;;;;;13.77;5.75;;;;;;;1.17;100.00;99337.84;5132716;28;20047;-63
2022/03/02 03:33:51;;;;;;;11.05;5.43;;;;;;;1.18;100.00;99331.34;5132832;28;20047;-62
2022/03/02 03:36:17;;;;;;;12.48;5.80;;;;;;;1.17;100.00;99329.75;5132561;28;20498;-62
2022/03/02 03:38:44;;;;;;;11.43;6.45;;;;;;;1.21;100.00;99331.84;5132788;28;20501;-62
2022/03/02 03:41:11;;;;;;;13.95;6.07;;;;;;;1.20;100.00;99324.81;5132594;28;20053;-62
2022/03/02 03:43:37;;;;;;;13.77;6.35;;;;;;;1.14;100.00;99307.94;5132724;28;20043;-63
2022/03/02 03:46:03;;;;;;;12.00;6.43;;;;;;;1.13;100.00;99325.22;5132466;28;20514;-63
2022/03/02 03:48:30;;;;;;;15.10;6.40;;;;;;;1.13;100.00;99320.66;5132500;28;20422;-63
2022/03/02 03:50:57;;;;;;;13.15;7.13;;;;;;;1.08;100.00;99315.31;5132313;28;20055;-63
2022/03/02 03:53:23;;;;;;;11.68;6.47;;;;;;;1.07;100.00;99310.22;5132656;28;20636;-63
2022/03/02 03:55:49;;;;;;;14.23;6.47;;;;;;;1.15;100.00;99313.03;5132272;28;20047;-63
2022/03/02 03:58:15;;;;;;;17.88;7.15;;;;;;;1.26;100.00;99320.94;5132092;28;20051;-63
2022/03/02 04:00:42;;;;;;;12.85;7.15;;;;;;;1.24;100.00;99325.84;5132816;28;20501;-63
2022/03/02 04:03:08;;;;;;;16.63;5.93;;;;;;;1.28;100.00;99341.16;5132310;28;20047;-63
2022/03/02 04:05:35;;;;;;;17.23;6.50;;;;;;;1.33;100.00;99316.75;5131925;28;20051;-63
2022/03/02 04:08:01;;;;;;;17.98;6.88;;;;;;;1.30;100.00;99327.34;5132273;28;20043;-63
2022/03/02 04:10:27;;;;;;;14.43;6.45;;;;;;;1.30;100.00;99309.25;5132203;28;20046;-63
2022/03/02 04:12:53;;;;;;;13.27;6.05;;;;;;;1.33;100.00;99310.53;5132158;28;20048;-63
2022/03/02 04:15:20;;;;;;;15.10;6.88;;;;;;;1.40;100.00;99310.97;5132031;28;20074;-63
2022/03/02 04:17:46;;;;;;;12.85;6.78;;;;;;;1.37;100.00;99303.44;5131912;28;20051;-63
2022/03/02 04:20:13;;;;;;;13.50;6.55;;;;;;;1.39;100.00;99304.72;5132031;28;20051;-63
2022/03/02 04:22:40;;;;;;;18.25;6.45;;;;;;;1.41;100.00;99282.84;5132093;28;20070;-63
2022/03/02 04:25:07;;;;;;;12.93;6.50;;;;;;;1.44;100.00;99276.81;5131887;28;20050;-63
2022/03/02 04:27:34;;;;;;;13.20;5.90;;;;;;;1.48;100.00;99282.44;5131998;28;20054;-63
2022/03/02 04:30:02;;;;;;;17.70;7.13;;;;;;;1.52;100.00;99292.31;5131769;28;20073;-63
2022/03/02 04:32:28;;;;;;;23.65;7.20;;;;;;;1.53;100.00;99291.22;5130822;27;20484;-63
2022/03/02 04:34:54;;;;;;;16.33;6.38;;;;;;;1.49;100.00;99275.91;5131556;28;20096;-63
2022/03/02 04:37:20;;;;;;;14.65;6.32;;;;;;;1.45;100.00;99264.91;5131670;28;20078;-63
2022/03/02 04:39:47;;;;;;;19.17;7.32;;;;;;;1.36;100.00;99267.50;5131780;28;20474;-63
2022/03/02 04:42:14;;;;;;;17.50;7.22;;;;;;;1.34;100.00;99266.22;5131313;28;20046;-63
2022/03/02 04:44:40;;;;;;;20.38;8.20;;;;;;;1.32;100.00;99266.50;5131448;28;20082;-63
2022/03/02 04:47:07;;;;;;;20.55;7.50;;;;;;;1.27;100.00;99258.53;5131210;28;20062;-63
2022/03/02 04:49:34;;;;;;;15.18;7.35;;;;;;;1.27;100.00;99263.94;5131520;28;20066;-63
2022/03/02 04:52:00;;;;;;;13.98;7.32;;;;;;;1.20;100.00;99257.31;5131535;28;20433;-62
2022/03/02 04:57:11;;;;;;;13.40;6.80;;;;;;;1.22;100.00;99249.72;5130816;28;20050;-63
2022/03/02 04:59:37;;;;;;;24.13;8.15;;;;;;;1.32;100.00;99257.63;5131275;28;20095;-63
2022/03/02 05:02:04;;;;;;;18.95;7.35;;;;;;;1.35;100.00;99259.72;5131253;28;20047;-65
2022/03/02 05:04:31;;;;;;;14.85;7.65;;;;;;;1.34;100.00;99277.03;5131114;28;20097;-66
2022/03/02 05:06:57;;;;;;;25.77;8.30;;;;;;;1.40;100.00;99267.72;5125601;28;20526;-67
2022/03/02 05:09:23;;;;;;;18.52;8.48;;;;;;;1.40;100.00;99267.72;5112988;28;20047;-67
2022/03/02 05:11:49;;;;;;;18.58;8.02;;;;;;;1.43;100.00;99259.00;5130855;27;20095;-67
2022/03/02 05:14:16;;;;;;;18.80;7.50;;;;;;;1.41;100.00;99248.50;5124308;28;20051;-67
2022/03/02 05:16:43;;;;;;;15.35;7.90;;;;;;;1.45;100.00;99247.91;5112424;28;20058;-66
2022/03/02 05:19:09;;;;;;;19.17;7.45;;;;;;;1.52;100.00;99243.69;5110185;28;20067;-67
2022/03/02 05:21:36;;;;;;;18.02;8.63;;;;;;;1.50;100.00;99264.00;5110509;28;20463;-61
2022/03/02 05:24:02;;;;;;;19.92;8.43;;;;;;;1.54;100.00;99260.41;5115187;27;20052;-63
2022/03/02 05:26:28;;;;;;;22.95;8.07;;;;;;;1.56;100.00;99263.59;5117117;28;20046;-63
2022/03/02 05:28:55;;;;;;;16.55;7.80;;;;;;;1.54;100.00;99267.72;5115546;28;20051;-64
2022/03/02 05:31:23;;;;;;;21.75;8.50;;;;;;;1.56;100.00;99260.09;5122294;28;20776;-65
2022/03/02 05:33:51;;;;;;;15.90;7.65;;;;;;;1.62;100.00;99262.38;5112075;28;20080;-64
2022/03/02 05:36:18;;;;;;;15.13;8.45;;;;;;;1.66;100.00;99281.50;5130642;28;20047;-66
2022/03/02 05:38:44;;;;;;;15.65;7.07;;;;;;;1.71;100.00;99284.09;5130549;28;20498;-66
2022/03/02 05:41:10;;;;;;;25.48;8.68;;;;;;;1.70;100.00;99306.00;5130623;28;20459;-66
2022/03/02 05:43:36;;;;;;;16.30;6.63;;;;;;;1.76;100.00;99292.09;5130239;27;20050;-65
2022/03/02 05:46:03;;;;;;;25.25;7.72;;;;;;;1.80;100.00;99303.09;5130466;28;20054;-65
2022/03/02 05:48:30;;;;;;;14.93;6.38;;;;;;;1.78;100.00;99298.00;5130746;28;20051;-63
2022/03/02 05:50:56;;;;;;;15.50;6.65;;;;;;;1.77;100.00;99317.22;5130446;28;20535;-66
2022/03/02 05:53:22;;;;;;;19.00;7.45;;;;;;;1.83;100.00;99297.06;5130751;28;20051;-68
2022/03/02 05:55:48;;;;;;;15.45;7.78;;;;;;;1.95;100.00;99293.84;5116542;27;20043;-64
2022/03/02 05:58:15;;;;;;;18.30;7.28;;;;;;;2.01;100.00;99289.94;5119224;28;20068;-66
2022/03/02 06:00:42;;;;;;;17.20;7.25;;;;;;;2.01;100.00;99293.44;5118794;28;20048;-66
2022/03/02 06:03:09;;;;;;;20.77;7.18;;;;;;;2.04;100.00;99290.13;5110141;28;20142;-65
2022/03/02 06:05:35;;;;;;;12.00;6.93;;;;;;;1.99;100.00;99297.53;5112672;28;20051;-66
2022/03/02 06:08:02;;;;;;;16.35;7.90;;;;;;;2.00;100.00;99286.44;5109920;28;20058;-68
2022/03/02 06:10:29;;;;;;;18.45;7.22;;;;;;;2.00;100.00;99289.16;5109960;28;20048;-67
2022/03/02 06:12:55;;;;;;;20.88;6.90;;;;;;;1.97;100.00;99297.88;5109678;28;20100;-68
2022/03/02 06:15:22;;;;;;;20.40;7.80;;;;;;;2.05;100.00;99277.41;5122941;28;20055;-67
2022/03/02 06:17:50;;;;;;;19.50;8.30;;;;;;;2.17;100.00;99282.28;5130122;28;20094;-66
2022/03/02 06:20:17;;;;;;;13.02;6.40;;;;;;;2.17;100.00;99288.50;5129808;28;20058;-65
2022/03/02 06:22:45;;;;;;;12.35;6.32;;;;;;;2.26;100.00;99278.50;5130166;27;20099;-64
2022/03/02 06:25:12;;;;;;;17.92;6.80;;;;;;;2.20;100.00;99293.28;5117934;28;20051;-65
2022/03/02 06:27:38;;;;;;;20.45;7.30;;;;;;;2.20;100.00;99276.25;5109602;28;20047;-63
2022/03/02 06:30:07;;;;;;;16.02;7.68;;;;;;;2.33;100.00;99278.09;5109240;28;20061;-62
2022/03/02 06:32:34;;;;;;;13.15;6.90;;;;;;;2.45;100.00;99275.63;5111615;28;20047;-62
2022/03/02 06:35:00;;;;;;;26.67;7.88;;;;;;;2.41;100.00;99277.38;5117527;28;20424;-64
2022/03/02 06:37:26;;;;;;;17.63;7.57;;;;;;;2.29;100.00;99286.03;5111801;28;20048;-63
2022/03/02 06:39:54;;;;;;;15.70;7.10;;;;;;;2.32;100.00;99284.63;5117946;28;20077;-71
2022/03/02 06:42:23;;;;;;;17.95;6.82;;;;;;;2.40;100.00;99288.47;5108196;28;20128;-70
2022/03/02 06:44:55;;;;;;;19.60;7.32;;;;;;;2.43;100.00;99304.09;5109733;27;20430;-70
2022/03/02 06:47:27;;;;;;;15.45;6.50;;;;;;;2.42;100.00;99306.00;5123094;28;20062;-69
2022/03/02 06:50:04;;;;;;;17.08;6.95;;;;;;;2.40;100.00;99302.00;5126219;28;20086;-70
2022/03/02 06:52:34;;;;;;;16.58;7.20;;;;;;;2.36;100.00;99299.91;5125962;28;20093;-71
2022/03/02 06:55:04;;;;;;;15.90;6.82;;;;;;;2.25;100.00;99292.38;5106016;28;20043;-70
2022/03/02 06:57:30;;;;;;;19.65;6.30;;;;;;;2.26;100.00;99289.34;5109800;27;20057;-69
2022/03/02 07:00:01;;;;;;;16.58;6.25;;;;;;;2.27;100.00;99295.56;5119970;27;20058;-70
2022/03/02 07:02:34;;;;;;;25.73;6.85;;;;;;;2.23;100.00;99311.63;5119484;28;20583;-70
2022/03/02 07:05:04;;;;;;;15.20;7.28;;;;;;;2.29;100.00;99306.88;5118550;27;20047;-69
2022/03/02 07:07:30;;;;;;;13.30;6.47;;;;;;;2.30;100.00;99293.06;5125399;28;20055;-69
2022/03/02 07:09:57;;;;;;;16.63;7.97;;;;;;;2.41;100.00;99296.31;5112075;28;20059;-69
2022/03/02 07:12:25;;;;;;;19.10;6.78;;;;;;;2.39;100.00;99313.94;5113752;28;20051;-68
2022/03/02 07:14:51;;;;;;;17.27;8.43;;;;;;;2.32;100.00;99325.19;5124036;28;20053;-70
2022/03/02 07:17:17;;;;;;;21.67;7.90;;;;;;;2.29;100.00;99304.16;5121260;27;20051;-69
2022/03/02 07:19:43;;;;;;;15.90;8.40;;;;;;;2.30;100.00;99308.47;5127640;28;20478;-71
2022/03/02 07:22:15;;;;;;;14.27;7.72;;;;;;;2.26;100.00;99323.72;5133889;27;20053;-69
2022/03/02 07:24:53;;;;;;;13.40;5.80;;;;;;;2.33;100.00;99322.19;5153349;27;20511;-69
2022/03/02 07:27:21;;;;;;;12.48;7.00;;;;;;;2.32;100.00;99352.25;5153182;27;20088;-70
2022/03/02 07:29:52;;;;;;;16.48;6.65;;;;;;;2.28;100.00;99381.03;5152967;27;20046;-69
2022/03/02 07:32:22;;;;;;;25.13;6.65;;;;;;;2.23;100.00;99363.00;5152967;27;20046;-69
2022/03/02 07:34:55;;;;;;;14.25;6.15;;;;;;;2.44;100.00;99363.34;5147255;27;20049;-70
2022/03/02 07:37:22;;;;;;;11.50;6.38;;;;;;;2.52;100.00;99359.88;5132835;28;20055;-71
2022/03/02 07:39:48;;;;;;;22.33;6.72;;;;;;;2.57;100.00;99370.63;5132063;28;20356;-70
2022/03/02 07:42:15;;;;;;;12.05;5.68;;;;;;;2.59;100.00;99373.78;5132483;28;20520;-70
2022/03/02 07:44:41;;;;;;;9.80;5.85;;;;;;;2.50;100.00;99388.38;5132222;28;20544;-70
2022/03/02 07:47:09;;;;;;;11.75;5.68;;;;;;;2.52;100.00;99386.16;5132237;28;20047;-70
2022/03/02 07:49:36;;;;;;;17.95;7.00;;;;;;;2.42;100.00;99376.38;5132260;28;20104;-72
2022/03/02 07:52:05;;;;;;;13.10;6.32;;;;;;;2.40;100.00;99386.72;5132784;27;20104;-68
2022/03/02 07:54:34;;;;;;;10.02;5.70;;;;;;;2.48;100.00;99377.84;5132306;28;20101;-69
2022/03/02 07:57:01;;;;;;;20.00;5.93;;;;;;;2.47;100.00;99351.91;5125413;27;20074;-68
2022/03/02 07:59:33;;;;;;;12.85;5.78;;;;;;;2.43;100.00;99347.41;5118703;27;20403;-68
2022/03/02 08:02:00;;;;;;;18.38;5.97;;;;;;;2.45;100.00;99339.78;5122725;27;20047;-69
2022/03/02 08:04:28;;;;;;;10.90;5.20;;;;;;;2.61;100.00;99343.72;5112960;28;20043;-68
2022/03/02 08:06:54;;;;;;;12.93;6.70;;;;;;;2.79;100.00;99340.03;5111232;28;20418;-68
2022/03/02 08:09:21;;;;;;;10.25;6.53;;;;;;;2.77;100.00;99355.00;5111226;28;20502;-68
2022/03/02 08:11:47;;;;;;;9.98;5.70;;;;;;;2.75;100.00;99363.41;5130464;27;20515;-68
2022/03/02 08:14:13;;;;;;;14.57;6.25;;;;;;;2.87;100.00;99348.53;5126917;27;20047;-68
2022/03/02 08:16:41;;;;;;;9.65;5.50;;;;;;;3.01;100.00;99339.22;5114954;28;20048;-68
2022/03/02 08:19:07;;;;;;;11.70;6.55;;;;;;;3.16;100.00;99345.31;5111307;28;20471;-68
2022/03/02 08:21:36;;;;;;;21.67;6.65;;;;;;;3.28;100.00;99350.97;5110846;28;20047;-68
2022/03/02 08:24:05;;;;;;;21.15;7.00;;;;;;;3.42;100.00;99340.84;5118916;28;20047;-68
2022/03/02 08:26:33;;;;;;;18.63;6.70;;;;;;;3.42;100.00;99356.28;5131423;28;20051;-68
2022/03/02 08:29:05;;;;;;;20.00;6.80;;;;;;;3.50;100.00;99369.09;5131150;28;20051;-69
2022/03/02 08:31:32;;;;;;;16.83;5.57;;;;;;;3.54;100.00;99379.00;5131860;28;20138;-68
2022/03/02 08:34:00;;;;;;;14.82;6.80;;;;;;;3.42;100.00;99381.47;5131272;28;20049;-68
2022/03/02 08:36:33;;;;;;;15.52;6.15;;;;;;;3.50;100.00;99355.56;5130792;28;20091;-71
2022/03/02 08:39:01;;;;;;;15.47;6.03;;;;;;;3.51;100.00;99376.13;5131355;28;20184;-69
2022/03/02 08:41:28;;;;;;;13.95;5.93;;;;;;;3.52;100.00;99378.50;5131164;27;20141;-69
2022/03/02 08:43:57;;;;;;;15.27;6.45;;;;;;;3.51;100.00;99381.53;5131219;28;20066;-70
2022/03/02 08:46:24;;;;;;;11.52;5.93;;;;;;;3.47;100.00;99372.44;5125020;28;20097;-70
2022/03/02 08:48:50;;;;;;;18.98;6.72;;;;;;;3.38;100.00;99377.81;5121021;28;20050;-71
2022/03/02 08:51:20;;;;;;;16.73;6.65;;;;;;;3.33;100.00;99358.97;5131358;28;20062;-71
2022/03/02 08:53:49;;;;;;;13.07;6.47;;;;;;;3.37;100.00;99359.97;5130818;28;20075;-70
2022/03/02 08:56:17;;;;;;;12.50;6.63;;;;;;;3.32;100.00;99356.56;5121152;28;20051;-70
2022/03/02 08:58:44;;;;;;;14.30;6.32;;;;;;;3.35;100.00;99359.47;5121827;28;20047;-70
2022/03/02 09:01:12;;;;;;;12.45;5.88;;;;;;;3.45;100.00;99348.34;5131353;28;20048;-72
2022/03/02 09:03:43;;;;;;;12.80;5.88;;;;;;;3.49;100.00;99368.28;5130936;28;20138;-70
2022/03/02 09:06:11;;;;;;;10.60;5.18;;;;;;;3.59;100.00;99356.34;5130191;28;20062;-71
2022/03/02 09:08:39;;;;;;;12.00;5.80;;;;;;;3.57;100.00;99358.59;5131918;28;20145;-70
2022/03/02 09:11:06;;;;;;;11.25;5.10;;;;;;;3.53;100.00;99368.44;5130459;28;20083;-67
2022/03/02 09:13:33;;;;;;;10.85;5.05;;;;;;;3.53;100.00;99395.56;5130099;28;20047;-68
2022/03/02 09:15:59;;;;;;;14.30;5.03;;;;;;;3.67;100.00;99403.63;5130619;28;20043;-69
2022/03/02 09:18:26;;;;;;;9.10;4.30;;;;;;;3.68;100.00;99413.34;5130169;27;20057;-69
2022/03/02 09:20:59;;;;;;;10.27;4.65;;;;;;;3.60;100.00;99414.91;5129822;28;20053;-64
2022/03/02 09:23:29;;;;;;;8.33;4.40;;;;;;;3.59;100.00;99404.34;5127263;28;20066;-65
2022/03/02 09:25:59;;;;;;;22.50;5.35;;;;;;;3.52;100.00;99392.06;5130267;28;20108;-67
2022/03/02 09:28:28;;;;;;;12.70;5.28;;;;;;;3.45;100.00;99401.75;5129982;28;20051;-66
2022/03/02 09:30:56;;;;;;;6.28;4.00;;;;;;;3.55;100.00;99401.47;5130227;28;20051;-65
2022/03/02 09:33:24;;;;;;;11.20;4.38;;;;;;;3.61;100.00;99396.72;5129138;27;20054;-65
2022/03/02 09:35:53;;;;;;;13.93;5.68;;;;;;;3.66;100.00;99400.06;5130090;27;20054;-65
2022/03/02 09:38:20;;;;;;;12.98;4.95;;;;;;;3.82;100.00;99389.63;5119295;28;20058;-65
2022/03/02 09:40:50;;;;;;;16.67;4.95;;;;;;;3.87;100.00;99410.38;5109548;28;20096;-67
2022/03/02 09:43:19;;;;;;;14.00;5.15;;;;;;;3.77;100.00;99409.56;5109627;28;20052;-67
2022/03/02 09:45:50;;;;;;;9.02;4.78;;;;;;;3.80;100.00;99391.03;5116531;27;20051;-67
2022/03/02 09:48:28;;;;;;;12.05;4.68;;;;;;;3.88;100.00;99401.13;5126076;27;20506;-66
2022/03/02 09:50:59;;;;;;;9.15;4.25;;;;;;;3.96;100.00;99389.50;5128688;28;20043;-67
2022/03/02 09:53:29;;;;;;;8.35;4.05;;;;;;;4.09;100.00;99368.78;5128149;28;20051;-70
2022/03/02 09:55:56;;;;;;;12.95;4.35;;;;;;;4.19;100.00;99373.91;5117482;27;20071;-68
2022/03/02 09:58:25;;;;;;;7.70;4.20;;;;;;;4.36;100.00;99379.34;5124455;27;20054;-67
2022/03/02 10:00:55;;;;;;;8.93;4.35;;;;;;;4.43;100.00;99387.00;5119676;28;20913;-62
2022/03/02 10:03:26;;;;;;;8.18;4.25;;;;;;;4.60;100.00;99381.63;5127652;28;20055;-67
2022/03/02 10:05:54;;;;;;;14.43;5.07;;;;;;;4.69;100.00;99384.31;5129732;28;20043;-67
2022/03/02 10:08:23;;;;;;;11.98;5.18;;;;;;;4.70;100.00;99388.66;5129688;28;20059;-67
2022/03/02 10:10:50;;;;;;;11.45;4.97;;;;;;;4.64;100.00;99389.91;5129281;28;20047;-67
2022/03/02 10:13:17;;;;;;;11.68;4.70;;;;;;;4.60;100.00;99395.19;5114272;27;20456;-67
2022/03/02 10:15:45;;;;;;;10.32;4.63;;;;;;;4.62;100.00;99392.94;5112691;27;20078;-67
2022/03/02 10:18:12;;;;;;;8.55;4.13;;;;;;;4.61;100.00;99396.78;5119051;27;20051;-67
2022/03/02 10:20:41;;;;;;;12.63;4.50;;;;;;;4.58;100.00;99394.69;5127429;28;20114;-68
2022/03/02 10:23:32;;;;;;;10.68;4.15;;;;;;;4.63;100.00;99391.00;5109707;28;20071;-68
2022/03/02 10:26:05;;;;;;;7.72;4.47;;;;;;;4.64;100.00;99395.34;5109330;28;20058;-68
2022/03/02 10:28:47;;;;;;;8.57;4.28;;;;;;;4.71;100.00;99373.94;5114540;28;20100;-68
2022/03/02 10:31:40;;;;;;;7.43;3.70;;;;;;;4.83;100.00;99378.69;5147350;27;20053;-68
2022/03/02 10:34:23;;;;;;;9.07;4.47;;;;;;;4.86;100.00;99378.06;5106749;28;20190;-69
2022/03/02 10:36:59;;;;;;;9.05;4.15;;;;;;;4.92;100.00;99374.84;5131585;28;20100;-67
2022/03/02 10:39:51;;;;;;;10.15;4.28;;;;;;;5.04;100.00;99368.78;5132731;28;20049;-68
2022/03/02 10:42:24;;;;;;;9.52;4.53;;;;;;;5.19;100.00;99364.75;5124125;28;20211;-68
2022/03/02 10:45:08;;;;;;;6.82;3.92;;;;;;;5.18;100.00;99368.59;5112506;28;20054;-68
2022/03/02 10:47:39;;;;;;;11.98;4.07;;;;;;;5.09;100.00;99362.38;5127403;28;20054;-68
2022/03/02 10:50:06;;;;;;;7.22;4.47;;;;;;;5.12;100.00;99369.88;5134840;27;20518;-68
2022/03/02 10:52:37;;;;;;;11.73;4.53;;;;;;;5.23;100.00;99364.88;5131997;28;20047;-67
2022/03/02 10:55:07;;;;;;;9.77;4.28;;;;;;;5.38;100.00;99357.00;5112227;28;20047;-69
2022/03/02 10:57:35;;;;;;;9.35;4.28;;;;;;;5.35;100.00;99340.53;5128870;28;20055;-69
2022/03/02 11:00:09;;;;;;;5.55;3.70;;;;;;;5.33;100.00;99340.88;5129680;28;20154;-67
2022/03/02 11:02:40;;;;;;;7.32;3.42;;;;;;;5.34;100.00;99336.25;5116761;28;20124;-68
2022/03/02 11:05:10;;;;;;;5.55;3.40;;;;;;;5.24;100.00;99340.13;5146394;27;20179;-68
2022/03/02 11:07:37;;;;;;;6.97;3.88;;;;;;;5.25;100.00;99322.66;5137527;27;20044;-68
2022/03/02 11:10:07;;;;;;;8.57;3.60;;;;;;;5.26;100.00;99320.75;5113231;28;20047;-68
2022/03/02 11:12:33;;;;;;;13.27;3.97;;;;;;;5.42;100.00;99325.31;5129011;28;20043;-69
2022/03/02 11:15:02;;;;;;;9.23;3.42;;;;;;;5.60;100.00;99308.94;5112182;28;20064;-69
2022/03/02 11:17:29;;;;;;;10.20;3.42;;;;;;;5.66;100.00;99324.75;5111904;28;20066;-70
2022/03/02 11:19:57;;;;;;;9.65;3.42;;;;;;;5.72;100.00;99327.25;5111975;28;20100;-67
2022/03/02 11:22:25;;;;;;;6.70;3.35;;;;;;;5.59;100.00;99318.22;5117588;28;20062;-67
2022/03/02 11:24:56;;;;;;;11.43;4.32;;;;;;;5.62;100.00;99302.03;5131380;28;20546;-68
2022/03/02 11:27:30;;;;;;;5.88;3.15;;;;;;;5.59;100.00;99308.13;5126743;28;20052;-68
2022/03/02 11:30:07;;;;;;;8.25;3.45;;;;;;;5.71;100.00;99301.19;5111575;28;20100;-67
2022/03/02 11:32:34;;;;;;;11.65;5.10;;;;;;;5.73;100.00;99304.38;5112550;28;20047;-68